.
WxDataArchive / Data Records for 2013-02-01
2013-01-31 February 2013 2013-02-02

Data Records for Friday, 01 February 2013

Time	Temp	Chill	HIndex	Humid	Dewpt	 Wind 	HiWind	WindDir	Rain 	Barom 
-----	----	-----	------	-----	-----	------	------	-------	-----	----- 
00:00	12.3	12.3	12.3	64	2.5	3	6	270	0.00	30.042 
00:05	12.1	12.1	12.1	65	2.6	2	7	270	0.00	30.042 
00:10	12.1	12.1	12.1	66	3.0	3	6	270	0.00	30.042 
00:15	12.1	5.1	12.1	67	3.3	4	6	270	0.00	30.049 
00:20	11.9	11.9	11.9	67	3.1	3	5	248	0.00	30.049 
00:25	11.7	4.6	11.7	67	2.9	4	7	270	0.00	30.049 
00:30	11.6	11.6	11.6	68	3.1	2	4	248	0.00	30.053 
00:35	11.6	11.6	11.6	68	3.1	3	10	248	0.00	30.053 
00:40	11.2	4.0	11.2	67	2.4	4	10	270	0.00	30.053 
00:45	11.1	3.9	11.1	67	2.3	4	9	270	0.00	30.067 
00:50	10.9	10.9	10.9	67	2.1	3	10	270	0.00	30.067 
00:55	10.9	10.9	10.9	67	2.1	3	5	248	0.00	30.067 
01:00	10.7	10.7	10.7	66	1.6	3	10	248	0.00	30.070 
01:05	10.7	3.5	10.7	66	1.6	4	7	270	0.00	30.070 
01:10	10.5	3.2	10.5	65	1.1	4	10	270	0.00	30.070 
01:15	10.4	10.4	10.4	64	0.7	3	9	270	0.00	30.071 
01:20	10.4	10.4	10.4	65	1.0	3	9	270	0.00	30.071 
01:25	10.2	10.2	10.2	64	0.5	3	7	270	0.00	30.071 
01:30	10.0	2.7	10.0	64	0.3	4	9	248	0.00	30.078 
01:35	10.0	2.7	10.0	65	0.6	4	7	248	0.00	30.078 
01:40	10.0	10.0	10.0	65	0.6	3	10	248	0.00	30.078 
01:45	10.0	10.0	10.0	65	0.6	3	6	248	0.00	30.085 
01:50	9.9	9.9	9.9	65	0.5	3	9	248	0.00	30.085 
01:55	9.9	2.5	9.9	65	0.5	4	6	270	0.00	30.085 
02:00	9.9	9.9	9.9	65	0.5	3	6	270	0.00	30.093 
02:05	9.7	9.7	9.7	65	0.3	3	9	270	0.00	30.093 
02:10	9.5	9.5	9.5	65	0.1	2	5	248	0.00	30.093 
02:15	9.5	9.5	9.5	66	0.5	2	7	270	0.00	30.102 
02:20	9.3	9.3	9.3	66	0.3	3	11	248	0.00	30.102 
02:25	9.2	9.2	9.2	67	0.5	2	7	270	0.00	30.102 
02:30	9.2	9.2	9.2	67	0.5	2	7	248	0.00	30.110 
02:35	9.0	9.0	9.0	67	0.3	3	6	270	0.00	30.110 
02:40	9.0	9.0	9.0	67	0.3	3	6	270	0.00	30.110 
02:45	9.0	9.0	9.0	68	0.6	3	7	248	0.00	30.120 
02:50	8.8	8.8	8.8	68	0.4	2	5	248	0.00	30.120 
02:55	8.8	8.8	8.8	68	0.4	3	10	270	0.00	30.120 
03:00	8.8	8.8	8.8	68	0.4	3	6	270	0.00	30.135 
03:05	8.8	8.8	8.8	67	0.1	3	6	270	0.00	30.135 
03:10	8.6	1.0	8.6	67	-0.1	4	7	270	0.00	30.135 
03:15	8.6	8.6	8.6	67	-0.1	3	6	270	0.00	30.138 
03:20	8.6	8.6	8.6	67	-0.1	3	8	270	0.00	30.138 
03:25	8.6	1.0	8.6	67	-0.1	4	9	270	0.00	30.138 
03:30	8.4	0.8	8.4	66	-0.6	4	12	248	0.00	30.148 
03:35	8.4	0.8	8.4	66	-0.6	4	7	270	0.00	30.148 
03:40	8.4	8.4	8.4	67	-0.3	2	5	270	0.00	30.148 
03:45	8.3	8.3	8.3	67	-0.4	3	7	248	0.00	30.156 
03:50	8.3	8.3	8.3	67	-0.4	3	6	270	0.00	30.156 
03:55	8.1	0.5	8.1	66	-0.9	4	12	270	0.00	30.156 
04:00	8.1	8.1	8.1	66	-0.9	3	7	248	0.00	30.165 
04:05	8.1	8.1	8.1	66	-0.9	3	6	248	0.00	30.165 
04:10	7.9	7.9	7.9	67	-0.7	3	7	248	0.00	30.165 
04:15	7.9	7.9	7.9	67	-0.7	3	6	248	0.00	30.170 
04:20	7.9	0.2	7.9	67	-0.7	4	10	248	0.00	30.170 
04:25	7.7	0.0	7.7	67	-0.9	4	10	248	0.00	30.170 
04:30	7.7	0.0	7.7	67	-0.9	4	10	248	0.00	30.179 
04:35	7.6	-0.1	7.6	67	-1.0	4	12	270	0.00	30.179 
04:40	7.4	7.4	7.4	67	-1.2	2	7	248	0.00	30.179 
04:45	7.4	7.4	7.4	68	-0.9	2	6	248	0.00	30.187 
04:50	7.4	7.4	7.4	68	-0.9	3	6	248	0.00	30.187 
04:55	7.2	7.2	7.2	68	-1.1	3	9	248	0.00	30.187 
05:00	7.2	7.2	7.2	68	-1.1	3	6	248	0.00	30.193 
05:05	7.0	-0.8	7.0	69	-1.0	4	10	248	0.00	30.193 
05:10	7.0	-0.8	7.0	69	-1.0	4	6	270	0.00	30.193 
05:15	7.0	7.0	7.0	69	-1.0	2	4	248	0.00	30.203 
05:20	7.0	7.0	7.0	69	-1.0	2	5	270	0.00	30.203 
05:25	6.9	6.9	6.9	69	-1.1	2	7	248	0.00	30.203 
05:30	6.9	6.9	6.9	69	-1.1	2	6	248	0.00	30.212 
05:35	6.9	6.9	6.9	69	-1.1	2	9	248	0.00	30.212 
05:40	6.9	6.9	6.9	69	-1.1	2	7	248	0.00	30.212 
05:45	6.9	6.9	6.9	69	-1.1	2	5	248	0.00	30.219 
05:50	6.7	6.7	6.7	70	-1.0	1	4	248	0.00	30.219 
05:55	6.7	6.7	6.7	70	-1.0	2	5	248	0.00	30.219 
06:00	6.7	6.7	6.7	70	-1.0	2	3	248	0.00	30.223 
06:05	6.7	6.7	6.7	69	-1.3	2	6	248	0.00	30.223 
06:10	6.7	6.7	6.7	69	-1.3	2	5	270	0.00	30.223 
06:15	6.7	6.7	6.7	69	-1.3	1	3	248	0.00	30.234 
06:20	6.5	6.5	6.5	69	-1.5	2	5	248	0.00	30.234 
06:25	6.5	6.5	6.5	69	-1.5	3	6	248	0.00	30.234 
06:30	6.5	6.5	6.5	69	-1.5	2	5	248	0.00	30.243 
06:35	6.5	6.5	6.5	69	-1.5	1	4	248	0.00	30.243 
06:40	6.5	6.5	6.5	69	-1.5	3	9	248	0.00	30.243 
06:45	6.5	6.5	6.5	68	-1.8	2	4	270	0.00	30.252 
06:50	6.5	6.5	6.5	69	-1.5	1	5	270	0.00	30.252 
06:55	6.5	6.5	6.5	69	-1.5	2	7	248	0.00	30.252 
07:00	6.3	6.3	6.3	69	-1.7	2	5	248	0.00	30.265 
07:05	6.3	6.3	6.3	69	-1.7	2	5	248	0.00	30.265 
07:10	6.1	6.1	6.1	69	-1.9	2	9	248	0.00	30.265 
07:15	6.1	6.1	6.1	69	-1.9	2	6	248	0.00	30.270 
07:20	6.1	6.1	6.1	69	-1.9	2	5	248	0.00	30.270 
07:25	6.1	6.1	6.1	69	-1.9	2	4	270	0.00	30.270 
07:30	6.1	6.1	6.1	69	-1.9	3	5	270	0.00	30.276 
07:35	6.0	6.0	6.0	68	-2.3	1	3	270	0.00	30.276 
07:40	6.0	6.0	6.0	68	-2.3	2	4	248	0.00	30.276 
07:45	5.8	5.8	5.8	68	-2.4	2	6	270	0.00	30.286 
07:50	5.8	5.8	5.8	68	-2.4	2	5	270	0.00	30.286 
07:55	5.8	5.8	5.8	67	-2.8	3	6	248	0.00	30.286 
08:00	5.6	5.6	5.6	68	-2.6	2	5	248	0.00	30.295 
08:05	5.6	5.6	5.6	68	-2.6	3	11	248	0.00	30.295 
08:10	5.6	5.6	5.6	68	-2.6	2	5	248	0.00	30.295 
08:15	5.6	5.6	5.6	68	-2.6	3	5	248	0.00	30.302 
08:20	5.6	5.6	5.6	68	-2.6	2	5	248	0.00	30.302 
08:25	5.6	5.6	5.6	68	-2.6	2	5	248	0.00	30.302 
08:30	5.8	5.8	5.8	68	-2.4	1	5	248	0.00	30.308 
08:35	6.0	6.0	6.0	68	-2.3	2	4	248	0.00	30.308 
08:40	6.1	6.1	6.1	68	-2.2	2	5	248	0.00	30.308 
08:45	6.3	6.3	6.3	67	-2.3	3	6	248	0.00	30.319 
08:50	6.3	6.3	6.3	66	-2.6	2	5	248	0.00	30.319 
08:55	6.3	6.3	6.3	66	-2.6	2	6	248	0.00	30.319 
09:00	6.7	6.7	6.7	66	-2.2	2	6	248	0.00	30.325 
09:05	6.7	6.7	6.7	66	-2.2	3	7	248	0.00	30.325 
09:10	6.9	6.9	6.9	65	-2.3	2	5	270	0.00	30.325 
09:15	7.0	7.0	7.0	66	-1.9	2	6	248	0.00	30.336 
09:20	7.0	7.0	7.0	65	-2.2	3	6	248	0.00	30.336 
09:25	7.2	7.2	7.2	65	-2.1	2	6	248	0.00	30.336 
09:30	7.4	7.4	7.4	65	-1.9	2	7	248	0.00	30.338 
09:35	7.7	7.7	7.7	65	-1.6	2	7	248	0.00	30.338 
09:40	7.9	7.9	7.9	64	-1.7	3	9	248	0.00	30.338 
09:45	8.3	8.3	8.3	65	-1.0	2	6	248	0.00	30.344 
09:50	8.4	8.4	8.4	64	-1.2	3	7	248	0.00	30.344 
09:55	8.6	8.6	8.6	63	-1.4	3	7	248	0.00	30.344 
10:00	8.6	8.6	8.6	63	-1.4	2	7	270	0.00	30.346 
10:05	8.8	8.8	8.8	63	-1.2	3	5	270	0.00	30.346 
10:10	8.8	8.8	8.8	63	-1.2	3	6	248	0.00	30.346 
10:15	9.2	9.2	9.2	64	-0.5	2	5	248	0.00	30.349 
10:20	9.2	9.2	9.2	63	-0.8	3	7	248	0.00	30.349 
10:25	9.2	9.2	9.2	63	-0.8	3	6	248	0.00	30.349 
10:30	9.3	9.3	9.3	64	-0.4	3	10	248	0.00	30.357 
10:35	9.5	9.5	9.5	63	-0.5	3	7	248	0.00	30.357 
10:40	9.7	9.7	9.7	63	-0.3	3	5	248	0.00	30.357 
10:45	9.7	2.3	9.7	62	-0.7	4	11	248	0.00	30.361 
10:50	10.0	10.0	10.0	63	-0.0	3	7	248	0.00	30.361 
10:55	10.2	10.2	10.2	62	-0.2	3	7	270	0.00	30.361 
11:00	10.4	10.4	10.4	62	-0.0	3	7	248	0.00	30.366 
11:05	10.4	10.4	10.4	62	-0.0	3	11	248	0.00	30.366 
11:10	10.4	10.4	10.4	62	-0.0	2	11	248	0.00	30.366 
11:15	10.5	10.5	10.5	62	0.1	3	9	248	0.00	30.372 
11:20	10.5	10.5	10.5	61	-0.3	3	7	248	0.00	30.372 
11:25	11.1	11.1	11.1	62	0.7	3	9	270	0.00	30.372 
11:30	11.2	11.2	11.2	61	0.4	2	5	248	0.00	30.376 
11:35	11.6	11.6	11.6	60	0.4	3	6	270	0.00	30.376 
11:40	11.6	11.6	11.6	60	0.4	3	11	270	0.00	30.376 
11:45	11.6	11.6	11.6	60	0.4	3	6	248	0.00	30.377 
11:50	11.9	11.9	11.9	60	0.7	3	6	270	0.00	30.377 
11:55	11.9	11.9	11.9	59	0.4	3	9	248	0.00	30.377 
12:00	12.1	12.1	12.1	60	0.9	2	5	270	0.00	30.374 
12:05	12.6	12.6	12.6	60	1.4	2	6	248	0.00	30.374 
12:10	12.6	12.6	12.6	59	1.0	3	5	248	0.00	30.374 
12:15	12.4	12.4	12.4	58	0.5	3	5	248	0.00	30.375 
12:20	12.3	12.3	12.3	59	0.7	3	6	248	0.00	30.375 
12:25	12.1	12.1	12.1	60	0.9	2	7	248	0.00	30.375 
12:30	12.1	12.1	12.1	61	1.3	2	5	248	0.00	30.376 
12:35	12.3	12.3	12.3	60	1.1	3	9	248	0.00	30.376 
12:40	12.4	12.4	12.4	60	1.2	3	7	248	0.00	30.376 
12:45	13.1	13.1	13.1	60	1.9	2	5	248	0.00	30.376 
12:50	13.1	13.1	13.1	60	1.9	2	5	248	0.00	30.376 
12:55	13.1	13.1	13.1	60	1.9	2	13	248	0.00	30.376 
13:00	12.9	12.9	12.9	58	0.9	3	11	248	0.00	30.378 
13:05	12.6	12.6	12.6	58	0.7	3	5	248	0.00	30.378 
13:10	12.4	12.4	12.4	58	0.5	2	7	248	0.00	30.378 
13:15	11.7	11.7	11.7	58	-0.2	3	5	248	0.00	30.380 
13:20	11.6	11.6	11.6	60	0.4	2	5	248	0.00	30.380 
13:25	11.9	11.9	11.9	60	0.7	2	6	248	0.00	30.380 
13:30	11.9	11.9	11.9	59	0.4	3	7	248	0.00	30.378 
13:35	12.1	12.1	12.1	60	0.9	3	6	248	0.00	30.378 
13:40	12.8	12.8	12.8	60	1.6	3	7	270	0.00	30.378 
13:45	13.3	13.3	13.3	58	1.3	2	9	248	0.00	30.376 
13:50	12.8	12.8	12.8	57	0.5	3	8	248	0.00	30.376 
13:55	12.9	12.9	12.9	57	0.6	2	4	248	0.00	30.376 
14:00	13.5	13.5	13.5	57	1.1	3	7	225	0.00	30.372 
14:05	13.8	13.8	13.8	56	1.0	2	7	248	0.00	30.372 
14:10	13.3	13.3	13.3	55	0.2	3	10	248	0.00	30.372 
14:15	12.6	12.6	12.6	56	-0.1	2	5	248	0.00	30.369 
14:20	12.1	12.1	12.1	56	-0.6	2	6	248	0.00	30.369 
14:25	11.9	11.9	11.9	58	0.0	2	6	270	0.00	30.369 
14:30	11.7	11.7	11.7	58	-0.2	2	5	248	0.00	30.369 
14:35	11.7	11.7	11.7	59	0.2	2	7	248	0.00	30.369 
14:40	11.6	11.6	11.6	58	-0.3	2	6	248	0.00	30.369 
14:45	11.7	11.7	11.7	59	0.2	2	5	248	0.00	30.366 
14:50	11.7	11.7	11.7	59	0.2	2	5	248	0.00	30.366 
14:55	11.7	11.7	11.7	59	0.2	2	5	248	0.00	30.366 
15:00	11.9	11.9	11.9	59	0.4	3	7	248	0.00	30.367 
15:05	12.3	12.3	12.3	60	1.1	1	4	248	0.00	30.367 
15:10	12.9	12.9	12.9	59	1.3	3	5	248	0.00	30.367 
15:15	13.1	13.1	13.1	58	1.1	3	7	248	0.00	30.365 
15:20	13.1	13.1	13.1	58	1.1	3	9	248	0.00	30.365 
15:25	12.8	12.8	12.8	58	0.8	3	8	248	0.00	30.365 
15:30	12.9	12.9	12.9	59	1.3	3	10	248	0.00	30.365 
15:35	13.3	13.3	13.3	58	1.3	3	10	248	0.00	30.365 
15:40	13.6	13.6	13.6	57	1.2	3	7	248	0.00	30.365 
15:45	13.5	13.5	13.5	56	0.8	3	7	248	0.00	30.362 
15:50	13.3	13.3	13.3	57	0.9	3	7	248	0.00	30.362 
15:55	13.5	13.5	13.5	58	1.5	2	6	248	0.00	30.362 
16:00	13.3	13.3	13.3	58	1.3	3	11	225	0.00	30.363 
16:05	12.9	12.9	12.9	58	0.9	2	7	248	0.00	30.363 
16:10	12.8	12.8	12.8	58	0.8	3	8	248	0.00	30.363 
16:15	12.9	12.9	12.9	59	1.3	3	6	248	0.00	30.358 
16:20	12.9	6.0	12.9	58	0.9	4	12	248	0.00	30.358 
16:25	12.8	12.8	12.8	59	1.2	2	6	248	0.00	30.358 
16:30	12.8	5.9	12.8	59	1.2	4	13	248	0.00	30.365 
16:35	12.6	12.6	12.6	59	1.0	2	7	248	0.00	30.365 
16:40	12.8	12.8	12.8	60	1.6	1	7	248	0.00	30.365 
16:45	12.8	12.8	12.8	60	1.6	2	4	248	0.00	30.358 
16:50	12.9	12.9	12.9	61	2.0	2	6	248	0.00	30.358 
16:55	12.9	12.9	12.9	61	2.0	2	7	248	0.00	30.358 
17:00	12.9	12.9	12.9	59	1.3	3	6	248	0.00	30.354 
17:05	12.8	12.8	12.8	59	1.2	2	6	248	0.00	30.354 
17:10	12.8	12.8	12.8	59	1.2	1	3	248	0.00	30.354 
17:15	12.9	12.9	12.9	59	1.3	2	7	248	0.00	30.354 
17:20	12.9	12.9	12.9	58	0.9	2	7	248	0.00	30.354 
17:25	12.9	12.9	12.9	58	0.9	3	7	248	0.00	30.354 
17:30	12.8	12.8	12.8	58	0.8	2	5	248	0.00	30.355 
17:35	12.8	12.8	12.8	59	1.2	1	5	248	0.00	30.355 
17:40	12.9	12.9	12.9	60	1.7	2	5	248	0.00	30.355 
17:45	12.9	12.9	12.9	59	1.3	2	6	248	0.00	30.352 
17:50	12.8	12.8	12.8	59	1.2	2	9	248	0.00	30.352 
17:55	12.8	12.8	12.8	58	0.8	3	6	248	0.00	30.352 
18:00	12.8	12.8	12.8	59	1.2	2	7	248	0.00	30.352 
18:05	12.8	12.8	12.8	59	1.2	1	4	248	0.00	30.352 
18:10	12.8	12.8	12.8	59	1.2	1	6	248	0.00	30.352 
18:15	12.8	12.8	12.8	59	1.2	2	5	248	0.00	30.351 
18:20	12.9	12.9	12.9	59	1.3	2	6	248	0.00	30.351 
18:25	12.9	12.9	12.9	59	1.3	2	4	248	0.00	30.351 
18:30	12.9	12.9	12.9	60	1.7	1	4	248	0.00	30.354 
18:35	13.1	13.1	13.1	60	1.9	1	4	248	0.00	30.354 
18:40	12.9	12.9	12.9	61	2.0	2	6	248	0.00	30.354 
18:45	13.1	13.1	13.1	61	2.2	2	5	248	0.00	30.353 
18:50	13.1	13.1	13.1	62	2.6	2	5	248	0.00	30.353 
18:55	13.3	13.3	13.3	62	2.7	1	4	248	0.00	30.353 
19:00	13.3	13.3	13.3	62	2.7	1	4	248	0.00	30.353 
19:05	13.5	13.5	13.5	62	2.9	2	5	248	0.00	30.353 
19:10	13.5	13.5	13.5	62	2.9	2	4	248	0.00	30.353 
19:15	13.6	13.6	13.6	62	3.0	1	4	248	0.00	30.353 
19:20	13.6	13.6	13.6	62	3.0	1	7	248	0.00	30.353 
19:25	13.8	13.8	13.8	62	3.2	1	4	248	0.00	30.353 
19:30	13.8	13.8	13.8	61	2.9	2	9	248	0.00	30.353 
19:35	13.8	13.8	13.8	61	2.9	2	4	248	0.00	30.353 
19:40	13.8	13.8	13.8	62	3.2	1	3	248	0.00	30.353 
19:45	13.8	13.8	13.8	62	3.2	1	3	248	0.00	30.354 
19:50	13.8	13.8	13.8	62	3.2	1	5	248	0.00	30.354 
19:55	13.8	13.8	13.8	62	3.2	1	5	248	0.00	30.354 
20:00	13.8	13.8	13.8	62	3.2	0	3	248	0.00	30.350 
20:05	13.8	13.8	13.8	62	3.2	1	6	248	0.00	30.350 
20:10	13.8	13.8	13.8	62	3.2	1	6	248	0.00	30.350 
20:15	13.8	13.8	13.8	62	3.2	1	3	225	0.00	30.347 
20:20	13.6	13.6	13.6	61	2.7	1	4	248	0.00	30.347 
20:25	13.6	13.6	13.6	61	2.7	1	3	248	0.00	30.347 
20:30	13.6	13.6	13.6	61	2.7	1	5	248	0.00	30.342 
20:35	13.6	13.6	13.6	61	2.7	1	2	248	0.00	30.342 
20:40	13.5	13.5	13.5	62	2.9	0	3	248	0.00	30.342 
20:45	13.5	13.5	13.5	62	2.9	0	2	248	0.00	30.338 
20:50	13.5	13.5	13.5	62	2.9	1	3	248	0.00	30.338 
20:55	13.5	13.5	13.5	62	2.9	1	3	248	0.00	30.338 
21:00	13.5	13.5	13.5	63	3.3	0	2	248	0.00	30.335 
21:05	13.5	13.5	13.5	63	3.3	0	4	248	0.00	30.335 
21:10	13.5	13.5	13.5	63	3.3	0	2	248	0.00	30.335 
21:15	13.3	13.3	13.3	64	3.4	0	2	248	0.00	30.329 
21:20	13.3	13.3	13.3	64	3.4	0	2	248	0.00	30.329 
21:25	13.3	13.3	13.3	64	3.4	0	2	248	0.00	30.329 
21:30	13.1	13.1	13.1	65	3.6	0	1	248	0.00	30.332 
21:35	13.1	13.1	13.1	65	3.6	0	2	248	0.00	30.332 
21:40	13.3	13.3	13.3	65	3.8	1	3	248	0.00	30.332 
21:45	13.3	13.3	13.3	65	3.8	1	3	248	0.00	30.328 
21:50	13.3	13.3	13.3	65	3.8	1	4	248	0.00	30.328 
21:55	13.5	13.5	13.5	65	4.0	1	3	248	0.00	30.328 
22:00	13.5	13.5	13.5	66	4.3	0	2	248	0.00	30.332 
22:05	13.3	13.3	13.3	66	4.1	0	5	248	0.00	30.332 
22:10	13.5	13.5	13.5	66	4.3	1	4	248	0.00	30.332 
22:15	13.6	13.6	13.6	66	4.4	0	3	292	0.00	30.325 
22:20	13.6	13.6	13.6	66	4.4	1	4	248	0.00	30.325 
22:25	13.6	13.6	13.6	66	4.4	1	6	248	0.00	30.325 
22:30	13.6	13.6	13.6	66	4.4	1	3	248	0.00	30.322 
22:35	13.6	13.6	13.6	67	4.7	1	5	248	0.00	30.322 
22:40	13.6	13.6	13.6	67	4.7	1	5	270	0.00	30.322 
22:45	13.5	13.5	13.5	67	4.6	0	3	225	0.00	30.315 
22:50	13.5	13.5	13.5	67	4.6	1	4	248	0.00	30.315 
22:55	13.5	13.5	13.5	67	4.6	1	5	248	0.00	30.315 
23:00	13.5	13.5	13.5	67	4.6	1	4	248	0.00	30.305 
23:05	13.5	13.5	13.5	67	4.6	1	4	248	0.00	30.305 
23:10	13.5	13.5	13.5	67	4.6	1	6	248	0.00	30.305 
23:15	13.6	13.6	13.6	67	4.7	1	5	248	0.00	30.297 
23:20	13.6	13.6	13.6	67	4.7	1	5	248	0.00	30.297 
23:25	13.6	13.6	13.6	67	4.7	1	5	248	0.00	30.297 
23:30	13.6	13.6	13.6	67	4.7	0	3	248	0.00	30.294 
23:35	13.5	13.5	13.5	67	4.6	1	3	248	0.00	30.294 
23:40	13.5	13.5	13.5	67	4.6	0	3	248	0.00	30.294 
23:45	13.3	13.3	13.3	68	4.7	0	2	248	0.00	30.293 
23:50	13.1	13.1	13.1	69	4.9	0	4	248	0.00	30.293 
23:55	12.9	12.9	12.9	69	4.7	1	3	248	0.00	30.293 

CoCoRaHS
IN-AL-39
A2 Web Hosting
Creative Commons License
GoDaddy
search engine by freefind advanced

loaded 2018-11-17 18:24:08 • last modified 2010-11-18 10:43:29
Privacy PolicyDisclaimer
• wx.awcolley.com is powered by PmWiki v.2002016 •
• all content (unless otherwise noted) © 2018 A W Colley